Time;durP1;ratioP1;P1;durP2;ratioP2;P2;SDS_P1;SDS_P2;PMS_P1;PMS_P2;Temp;Humidity;BMP_temperature;BMP_pressure;BME280_temperature;BME280_humidity;BME280_pressure;Samples;Min_cycle;Max_cycle;Signal;HPM_P1;HPM_P2
2023/04/07 00:00:50;;;;;;;14.73;13.73;;;9.50;34.80;;;;;;5023032;28;20180;-56
2023/04/07 00:03:16;;;;;;;14.33;13.40;;;9.50;36.10;;;;;;5022014;28;20547;-56
2023/04/07 00:05:41;;;;;;;13.87;13.17;;;9.60;36.10;;;;;;5024084;28;20267;-53
2023/04/07 00:08:07;;;;;;;14.33;13.53;;;9.70;35.50;;;;;;5023789;28;20180;-53
2023/04/07 00:10:33;;;;;;;14.67;13.87;;;9.80;34.70;;;;;;5022899;28;20207;-55
2023/04/07 00:12:58;;;;;;;14.50;13.60;;;9.80;34.70;;;;;;5022521;28;20199;-54
2023/04/07 00:15:24;;;;;;;14.30;13.50;;;9.70;34.10;;;;;;5023244;28;20246;-53
2023/04/07 00:17:49;;;;;;;13.93;13.13;;;9.50;34.50;;;;;;5021111;28;20323;-57
2023/04/07 00:20:15;;;;;;;14.77;13.87;;;9.60;35.50;;;;;;5020755;28;20234;-56
2023/04/07 00:22:41;;;;;;;18.87;17.60;;;9.60;36.20;;;;;;5021946;28;20172;-56
2023/04/07 00:25:07;;;;;;;16.97;15.93;;;9.70;36.10;;;;;;5021378;28;20926;-56
2023/04/07 00:27:33;;;;;;;15.43;14.57;;;9.60;35.60;;;;;;5020537;28;20443;-55
2023/04/07 00:29:59;;;;;;;14.97;14.17;;;9.60;36.50;;;;;;5020670;28;20672;-56
2023/04/07 00:32:24;;;;;;;15.90;14.80;;;9.70;35.50;;;;;;5019556;28;20172;-55
2023/04/07 00:34:50;;;;;;;15.10;14.30;;;9.70;34.90;;;;;;5020719;28;20176;-51
2023/04/07 00:37:16;;;;;;;15.73;14.87;;;9.60;36.10;;;;;;5018583;28;20176;-55
2023/04/07 00:39:42;;;;;;;15.97;14.97;;;9.60;36.60;;;;;;5018899;28;20236;-55
2023/04/07 00:42:07;;;;;;;15.97;15.10;;;9.50;36.30;;;;;;5020017;28;20201;-49
2023/04/07 00:44:33;;;;;;;15.80;14.90;;;9.40;37.20;;;;;;5022296;28;20175;-51
2023/04/07 00:46:59;;;;;;;16.37;15.37;;;9.50;37.00;;;;;;5020450;28;20194;-48
2023/04/07 00:49:29;;;;;;;16.77;15.77;;;9.50;36.50;;;;;;5019677;28;20284;-47
2023/04/07 00:51:56;;;;;;;15.37;14.33;;;9.40;37.30;;;;;;5019584;28;20542;-46
2023/04/07 00:54:26;;;;;;;16.57;15.57;;;9.50;37.40;;;;;;5019945;28;20769;-45
2023/04/07 00:56:52;;;;;;;15.97;14.97;;;9.50;37.80;;;;;;5018717;28;20940;-50
2023/04/07 00:59:18;;;;;;;15.50;14.50;;;9.70;37.50;;;;;;5020997;28;20455;-52
2023/04/07 01:02:03;;;;;;;15.13;14.33;;;9.80;36.70;;;;;;5017885;28;20419;-53
2023/04/07 01:04:49;;;;;;;15.40;14.47;;;9.60;36.90;;;;;;5018277;28;20419;-47
2023/04/07 01:07:22;;;;;;;16.27;15.00;;;9.50;38.60;;;;;;5019446;28;20427;-52
2023/04/07 01:09:56;;;;;;;15.87;14.97;;;9.50;38.60;;;;;;5019365;28;20408;-47
2023/04/07 01:12:33;;;;;;;15.17;14.17;;;9.60;38.20;;;;;;5016932;28;20919;-51
2023/04/07 01:15:06;;;;;;;15.60;14.60;;;9.60;37.30;;;;;;5018909;28;20785;-51
2023/04/07 01:17:35;;;;;;;16.27;15.23;;;9.50;38.00;;;;;;5019820;28;20427;-47
2023/04/07 01:20:06;;;;;;;15.97;15.10;;;9.30;37.40;;;;;;5016252;28;20407;-51
2023/04/07 01:22:39;;;;;;;16.90;15.80;;;9.20;38.10;;;;;;5017509;28;20489;-52
2023/04/07 01:25:32;;;;;;;16.37;15.37;;;9.10;38.60;;;;;;5018873;28;20470;-47
2023/04/07 01:28:02;;;;;;;16.13;15.23;;;9.10;38.50;;;;;;5019170;28;20422;-49
2023/04/07 01:30:33;;;;;;;14.70;13.80;;;9.00;38.60;;;;;;5017151;28;20415;-51
2023/04/07 01:33:01;;;;;;;14.93;14.13;;;9.00;39.10;;;;;;5018779;28;20423;-47
2023/04/07 01:35:30;;;;;;;15.97;15.00;;;9.00;38.80;;;;;;5017432;28;20776;-47
2023/04/07 01:37:59;;;;;;;15.50;14.50;;;9.10;39.40;;;;;;5017061;28;20458;-48
2023/04/07 01:40:25;;;;;;;15.83;14.80;;;9.10;38.40;;;;;;5016541;28;20487;-49
2023/04/07 01:42:52;;;;;;;16.10;15.27;;;9.10;37.90;;;;;;5017503;28;20780;-49
2023/04/07 01:45:19;;;;;;;16.00;15.00;;;9.20;38.20;;;;;;5016675;28;20415;-46
2023/04/07 01:47:45;;;;;;;16.00;15.10;;;9.40;37.60;;;;;;5017594;28;20518;-51
2023/04/07 01:50:11;;;;;;;15.77;14.87;;;9.50;36.80;;;;;;5014492;28;20422;-50
2023/04/07 01:52:38;;;;;;;17.00;15.90;;;9.50;36.60;;;;;;5017582;28;20426;-51
2023/04/07 01:55:05;;;;;;;17.07;16.07;;;9.60;36.90;;;;;;5017769;28;20485;-51
2023/04/07 01:57:31;;;;;;;15.67;14.77;;;9.60;37.00;;;;;;5016106;28;20471;-45
2023/04/07 01:59:57;;;;;;;17.00;16.00;;;9.50;35.30;;;;;;5018290;28;20419;-48
2023/04/07 02:02:23;;;;;;;16.33;15.33;;;9.40;36.40;;;;;;5019301;28;20169;-52
2023/04/07 02:04:55;;;;;;;16.10;15.10;;;9.40;36.20;;;;;;5016830;28;20180;-46
2023/04/07 02:07:36;;;;;;;14.73;13.93;;;9.40;36.50;;;;;;5017383;28;20211;-45
2023/04/07 02:10:04;;;;;;;15.80;14.80;;;9.30;35.40;;;;;;5015352;28;20852;-51
2023/04/07 02:12:31;;;;;;;15.10;14.20;;;9.40;35.90;;;;;;5015536;28;20478;-47
2023/04/07 02:14:59;;;;;;;16.57;15.47;;;9.60;35.90;;;;;;5018845;28;20419;-48
2023/04/07 02:17:27;;;;;;;15.97;14.97;;;9.60;36.60;;;;;;5021718;28;20422;-51
2023/04/07 02:20:10;;;;;;;15.40;14.50;;;9.70;36.00;;;;;;5021211;28;20459;-51
2023/04/07 02:22:41;;;;;;;15.03;14.23;;;9.60;34.90;;;;;;5021413;28;20906;-46
2023/04/07 02:25:27;;;;;;;14.40;13.60;;;9.60;35.20;;;;;;5019914;28;20423;-53
2023/04/07 02:27:54;;;;;;;14.63;13.73;;;9.80;36.00;;;;;;5021025;28;20407;-56
2023/04/07 02:30:20;;;;;;;14.87;14.07;;;9.90;35.10;;;;;;5020306;28;20411;-53
2023/04/07 02:32:46;;;;;;;13.80;13.10;;;10.10;33.00;;;;;;5022466;28;20415;-57
2023/04/07 02:35:12;;;;;;;15.90;15.00;;;10.20;32.40;;;;;;5022364;28;20933;-53
2023/04/07 02:37:38;;;;;;;16.10;15.20;;;10.30;31.70;;;;;;5017521;28;20264;-56
2023/04/07 02:40:05;;;;;;;14.90;14.00;;;10.40;31.80;;;;;;5017929;28;20199;-56
2023/04/07 02:42:30;;;;;;;15.87;14.83;;;10.40;31.20;;;;;;5020740;28;20782;-56
2023/04/07 02:44:56;;;;;;;16.23;15.23;;;10.30;31.70;;;;;;5019330;28;20498;-50
2023/04/07 02:47:22;;;;;;;15.90;14.80;;;10.40;31.60;;;;;;5021668;28;20175;-52
2023/04/07 02:49:47;;;;;;;15.60;14.70;;;10.50;31.00;;;;;;5018115;28;20177;-49
2023/04/07 02:52:13;;;;;;;15.37;14.47;;;10.50;30.10;;;;;;5018843;28;20189;-55
2023/04/07 02:54:39;;;;;;;15.17;14.27;;;10.60;30.20;;;;;;5019178;28;20645;-56
2023/04/07 02:57:04;;;;;;;14.40;13.63;;;10.50;30.90;;;;;;5017857;28;20190;-57
2023/04/07 02:59:30;;;;;;;14.90;14.10;;;10.50;30.30;;;;;;5021044;28;20220;-55
2023/04/07 03:01:56;;;;;;;14.87;14.07;;;10.50;29.60;;;;;;5019302;28;20176;-55
2023/04/07 03:04:21;;;;;;;15.30;14.40;;;10.40;29.50;;;;;;5016840;28;20176;-55
2023/04/07 03:06:47;;;;;;;15.57;14.67;;;10.30;30.50;;;;;;5016926;28;20207;-52
2023/04/07 03:09:13;;;;;;;15.87;14.83;;;10.40;30.60;;;;;;5018774;28;20427;-55
2023/04/07 03:11:40;;;;;;;16.00;15.10;;;10.40;30.20;;;;;;5016988;28;20227;-56
2023/04/07 03:14:06;;;;;;;14.37;13.67;;;10.50;30.10;;;;;;5017904;28;20419;-53
2023/04/07 03:16:31;;;;;;;15.17;14.20;;;10.50;29.50;;;;;;5018893;28;20434;-55
2023/04/07 03:18:57;;;;;;;15.40;14.60;;;10.60;29.40;;;;;;5016490;28;20207;-53
2023/04/07 03:21:23;;;;;;;16.80;15.80;;;10.60;29.60;;;;;;5018759;28;20181;-55
2023/04/07 03:23:48;;;;;;;16.83;15.83;;;10.50;29.50;;;;;;5018661;28;20268;-56
2023/04/07 03:26:14;;;;;;;16.30;15.20;;;10.30;29.60;;;;;;5019123;28;20177;-45
2023/04/07 03:28:40;;;;;;;16.17;14.83;;;10.30;30.40;;;;;;5020835;28;20180;-49
2023/04/07 03:31:06;;;;;;;15.87;15.00;;;10.10;30.20;;;;;;5019934;28;20179;-45
2023/04/07 03:33:31;;;;;;;16.10;15.03;;;10.10;30.50;;;;;;5020792;28;20411;-47
2023/04/07 03:35:57;;;;;;;16.10;15.20;;;9.90;32.30;;;;;;5020101;28;20560;-52
2023/04/07 03:38:22;;;;;;;15.37;14.30;;;10.00;31.50;;;;;;5023319;28;20211;-44
2023/04/07 03:40:48;;;;;;;16.17;15.23;;;10.10;30.60;;;;;;5023283;28;20203;-47
2023/04/07 03:43:15;;;;;;;15.30;14.30;;;10.10;30.20;;;;;;5024915;28;20571;-45
2023/04/07 03:45:41;;;;;;;15.77;14.77;;;10.10;30.80;;;;;;5022483;28;20652;-44
2023/04/07 03:48:10;;;;;;;16.90;15.60;;;10.10;30.60;;;;;;5022703;28;20439;-52
2023/04/07 03:50:40;;;;;;;15.00;14.00;;;10.20;29.90;;;;;;5026562;28;20426;-55
2023/04/07 03:53:06;;;;;;;16.27;15.10;;;10.30;30.00;;;;;;5026196;28;20466;-52
2023/04/07 03:55:33;;;;;;;14.50;13.70;;;10.40;30.40;;;;;;5024333;28;20509;-53
2023/04/07 03:57:59;;;;;;;14.97;14.17;;;10.50;30.30;;;;;;5024145;28;20600;-51
2023/04/07 04:00:25;;;;;;;15.00;14.13;;;10.50;29.80;;;;;;5027756;28;20506;-55
2023/04/07 04:02:51;;;;;;;13.80;13.00;;;10.60;29.20;;;;;;5026763;28;20428;-54
2023/04/07 04:05:17;;;;;;;15.30;14.40;;;10.50;28.70;;;;;;5028063;28;20415;-50
2023/04/07 04:07:42;;;;;;;15.53;14.60;;;10.40;29.30;;;;;;5027105;28;20414;-56
2023/04/07 04:10:08;;;;;;;14.13;13.33;;;10.40;29.30;;;;;;5009957;28;20172;-52
2023/04/07 04:12:34;;;;;;;16.17;15.27;;;10.40;29.20;;;;;;5030244;28;20184;-56
2023/04/07 04:15:00;;;;;;;15.27;14.27;;;10.30;29.80;;;;;;5030148;28;20625;-51
2023/04/07 04:17:25;;;;;;;14.27;13.47;;;10.10;30.20;;;;;;5028359;28;20617;-53
2023/04/07 04:19:51;;;;;;;16.00;15.07;;;10.10;30.00;;;;;;5029655;28;20209;-56
2023/04/07 04:22:17;;;;;;;15.53;14.50;;;10.00;30.80;;;;;;5013052;28;20940;-56
2023/04/07 04:24:44;;;;;;;15.83;14.83;;;9.90;31.80;;;;;;5027773;28;20168;-54
2023/04/07 04:27:09;;;;;;;15.50;14.50;;;9.80;32.30;;;;;;5029440;28;20268;-53
2023/04/07 04:29:35;;;;;;;15.33;14.13;;;9.70;32.50;;;;;;5031269;28;20840;-56
2023/04/07 04:32:01;;;;;;;15.57;14.57;;;9.70;32.20;;;;;;5030531;28;20177;-52
2023/04/07 04:34:26;;;;;;;16.23;15.17;;;9.50;32.30;;;;;;5029402;28;20462;-51
2023/04/07 04:36:52;;;;;;;15.10;14.00;;;9.60;32.80;;;;;;5030157;28;20177;-51
2023/04/07 04:39:18;;;;;;;16.00;15.03;;;9.60;32.90;;;;;;5031975;28;20208;-49
2023/04/07 04:41:44;;;;;;;14.50;13.60;;;9.60;32.20;;;;;;5030381;28;20262;-46
2023/04/07 04:44:11;;;;;;;14.60;13.70;;;9.70;32.20;;;;;;5028327;28;20175;-50
2023/04/07 04:46:36;;;;;;;15.20;14.30;;;9.80;32.30;;;;;;5030015;28;20545;-55
2023/04/07 04:49:02;;;;;;;16.20;15.00;;;9.90;33.00;;;;;;5031465;28;20526;-54
2023/04/07 04:51:28;;;;;;;15.77;14.77;;;10.00;31.50;;;;;;5031131;28;20184;-55
2023/04/07 04:53:54;;;;;;;15.23;14.17;;;10.10;31.10;;;;;;5024176;28;20184;-51
2023/04/07 04:56:20;;;;;;;14.90;13.90;;;10.20;29.90;;;;;;5029802;28;20187;-50
2023/04/07 04:58:46;;;;;;;14.30;13.50;;;10.30;30.00;;;;;;5029970;28;20466;-53
2023/04/07 05:01:12;;;;;;;14.27;13.47;;;10.30;29.80;;;;;;5030011;28;20465;-53
2023/04/07 05:03:38;;;;;;;14.23;13.43;;;10.30;29.80;;;;;;5030306;28;20200;-48
2023/04/07 05:06:04;;;;;;;14.60;13.60;;;10.20;30.20;;;;;;5030901;28;20487;-51
2023/04/07 05:08:30;;;;;;;14.90;14.00;;;10.20;29.80;;;;;;5029955;28;20173;-53
2023/04/07 05:10:56;;;;;;;15.60;14.60;;;10.30;29.40;;;;;;5030094;28;20411;-51
2023/04/07 05:13:21;;;;;;;14.20;13.30;;;10.30;29.80;;;;;;5030005;28;20176;-45
2023/04/07 05:15:47;;;;;;;14.60;13.60;;;10.30;29.10;;;;;;5030293;28;20427;-48
2023/04/07 05:18:13;;;;;;;15.43;14.53;;;10.40;29.60;;;;;;5030583;28;20196;-49
2023/04/07 05:20:39;;;;;;;15.43;14.43;;;10.50;29.40;;;;;;5030609;28;20168;-47
2023/04/07 05:23:05;;;;;;;14.57;13.57;;;10.70;28.90;;;;;;5029818;28;20204;-48
2023/04/07 05:25:31;;;;;;;13.87;13.00;;;10.70;28.40;;;;;;5029234;28;20446;-49
2023/04/07 05:27:58;;;;;;;14.73;13.83;;;10.80;28.30;;;;;;5029405;28;20514;-49
2023/04/07 05:30:24;;;;;;;14.67;13.77;;;10.90;28.20;;;;;;5030387;28;20535;-48
2023/04/07 05:32:51;;;;;;;16.37;15.37;;;10.90;27.70;;;;;;5029864;28;20415;-52
2023/04/07 05:35:16;;;;;;;14.43;13.40;;;10.70;28.90;;;;;;5030277;28;20763;-55
2023/04/07 05:37:42;;;;;;;14.93;14.03;;;10.60;29.10;;;;;;5030599;28;20430;-52
2023/04/07 05:40:08;;;;;;;14.40;13.50;;;10.40;29.50;;;;;;5030343;28;20172;-55
2023/04/07 05:42:34;;;;;;;16.30;15.30;;;10.30;29.50;;;;;;5029056;28;20173;-54
2023/04/07 05:44:59;;;;;;;15.10;13.90;;;10.40;29.80;;;;;;5030212;28;20973;-54
2023/04/07 05:47:25;;;;;;;15.67;14.67;;;10.50;29.30;;;;;;5030199;28;20229;-49
2023/04/07 05:49:51;;;;;;;14.43;13.23;;;10.70;28.70;;;;;;5034278;28;20187;-51
2023/04/07 05:52:16;;;;;;;16.30;15.23;;;10.80;27.80;;;;;;5033037;28;20195;-54
2023/04/07 05:54:42;;;;;;;15.33;14.37;;;10.70;27.70;;;;;;5034290;28;20176;-55
2023/04/07 05:57:08;;;;;;;15.47;14.50;;;10.60;28.20;;;;;;5032590;28;20629;-52
2023/04/07 05:59:34;;;;;;;15.30;14.30;;;10.50;28.30;;;;;;5034117;28;20212;-46
2023/04/07 06:02:00;;;;;;;14.20;13.27;;;10.30;29.20;;;;;;5033522;28;20621;-49
2023/04/07 06:04:25;;;;;;;14.10;13.27;;;10.20;29.40;;;;;;5033890;28;20441;-49
2023/04/07 06:06:54;;;;;;;13.60;12.80;;;10.40;29.30;;;;;;5034112;28;20180;-50
2023/04/07 06:09:23;;;;;;;15.47;14.57;;;10.60;29.10;;;;;;5034097;28;20184;-51
2023/04/07 06:11:49;;;;;;;14.13;13.23;;;10.70;28.80;;;;;;5033736;28;20419;-52
2023/04/07 06:14:17;;;;;;;14.90;13.93;;;10.80;28.50;;;;;;5034211;28;20419;-51
2023/04/07 06:16:42;;;;;;;14.20;13.40;;;10.70;28.50;;;;;;5033408;28;20423;-50
2023/04/07 06:19:08;;;;;;;16.23;15.23;;;10.60;29.50;;;;;;5033687;28;20462;-48
2023/04/07 06:21:34;;;;;;;14.83;13.83;;;10.40;30.00;;;;;;5033312;28;20222;-47
2023/04/07 06:24:00;;;;;;;15.17;14.17;;;10.30;30.30;;;;;;5033793;28;20586;-49
2023/04/07 06:26:26;;;;;;;15.13;14.20;;;10.10;29.90;;;;;;5030654;28;20416;-47
2023/04/07 06:28:52;;;;;;;14.40;13.40;;;10.20;30.00;;;;;;5031555;28;20181;-44
2023/04/07 06:31:17;;;;;;;15.20;14.20;;;10.20;30.00;;;;;;5049383;28;20763;-50
2023/04/07 06:33:44;;;;;;;13.73;13.00;;;10.30;29.90;;;;;;5046167;28;20633;-44
2023/04/07 06:36:10;;;;;;;14.60;13.60;;;10.20;29.50;;;;;;5032965;28;20437;-45
2023/04/07 06:38:37;;;;;;;15.83;14.80;;;10.20;29.40;;;;;;5032435;28;20551;-46
2023/04/07 06:41:03;;;;;;;16.33;15.33;;;10.20;29.80;;;;;;5032780;28;20433;-50
2023/04/07 06:43:29;;;;;;;16.90;15.60;;;10.10;29.80;;;;;;5032675;28;20506;-51
2023/04/07 06:45:55;;;;;;;16.00;14.90;;;10.20;29.70;;;;;;5033379;28;20229;-45
2023/04/07 06:48:21;;;;;;;15.67;14.70;;;10.30;30.00;;;;;;5033254;28;20478;-45
2023/04/07 06:50:48;;;;;;;16.07;15.00;;;10.20;29.30;;;;;;5033539;28;20176;-55
2023/04/07 06:53:14;;;;;;;16.33;15.40;;;10.20;29.20;;;;;;5032482;28;20219;-54
2023/04/07 06:55:40;;;;;;;16.57;15.47;;;10.10;29.20;;;;;;5032832;28;20837;-47
2023/04/07 06:58:06;;;;;;;16.20;15.20;;;10.00;29.70;;;;;;5032944;28;20196;-50
2023/04/07 07:00:31;;;;;;;14.90;13.80;;;10.00;29.60;;;;;;5031477;28;20924;-46
2023/04/07 07:02:57;;;;;;;14.80;13.80;;;10.00;29.50;;;;;;5033667;28;20180;-44
2023/04/07 07:05:23;;;;;;;16.00;14.80;;;10.00;29.30;;;;;;5032404;28;20191;-46
2023/04/07 07:07:49;;;;;;;15.37;14.47;;;9.90;30.60;;;;;;5031928;28;20459;-48
2023/04/07 07:10:15;;;;;;;16.63;15.40;;;9.90;30.60;;;;;;5032518;28;20228;-50
2023/04/07 07:12:40;;;;;;;17.53;16.07;;;10.00;29.70;;;;;;5032298;28;20425;-49
2023/04/07 07:15:07;;;;;;;15.20;14.40;;;9.90;30.80;;;;;;5032548;28;20548;-51
2023/04/07 07:17:33;;;;;;;15.20;14.30;;;10.00;29.90;;;;;;5048895;28;20216;-49
2023/04/07 07:19:59;;;;;;;14.67;13.57;;;9.90;31.00;;;;;;5049461;28;20554;-50
2023/04/07 07:22:25;;;;;;;15.97;14.87;;;10.10;29.90;;;;;;5048785;28;20514;-45
2023/04/07 07:24:51;;;;;;;17.00;15.80;;;10.10;29.80;;;;;;5033652;28;20235;-45
2023/04/07 07:27:16;;;;;;;16.93;15.83;;;10.20;29.60;;;;;;5031666;28;20424;-48
2023/04/07 07:29:42;;;;;;;17.37;16.27;;;10.20;29.70;;;;;;5031751;28;20183;-48
2023/04/07 07:32:08;;;;;;;14.90;14.00;;;10.20;29.90;;;;;;5032271;28;20173;-47
2023/04/07 07:34:33;;;;;;;15.93;14.93;;;10.20;29.70;;;;;;5033002;28;20511;-46
2023/04/07 07:36:59;;;;;;;16.53;15.53;;;10.20;30.00;;;;;;5031406;28;20181;-49
2023/04/07 07:39:25;;;;;;;15.60;14.70;;;10.20;30.00;;;;;;5031109;28;20267;-49
2023/04/07 07:41:51;;;;;;;15.43;14.47;;;10.20;29.80;;;;;;5031018;28;20177;-45
2023/04/07 07:44:19;;;;;;;14.80;13.90;;;10.20;30.30;;;;;;5032283;28;20430;-51
2023/04/07 07:46:44;;;;;;;15.47;14.57;;;10.20;31.10;;;;;;5032538;28;20416;-45
2023/04/07 07:49:10;;;;;;;16.13;15.10;;;10.20;30.90;;;;;;5032857;28;20462;-48
2023/04/07 07:51:36;;;;;;;16.00;15.00;;;10.40;30.00;;;;;;5032493;28;20191;-49
2023/04/07 07:54:02;;;;;;;15.73;14.63;;;10.40;30.00;;;;;;5032932;28;20181;-49
2023/04/07 07:56:27;;;;;;;15.97;14.97;;;10.50;30.30;;;;;;5032751;28;20191;-48
2023/04/07 07:58:54;;;;;;;15.03;14.13;;;10.50;29.80;;;;;;5032677;28;20208;-46
2023/04/07 08:01:20;;;;;;;13.80;12.90;;;10.60;30.00;;;;;;5032191;28;20266;-49
2023/04/07 08:03:46;;;;;;;14.90;14.00;;;10.80;29.50;;;;;;5032757;28;20447;-46
2023/04/07 08:06:11;;;;;;;14.57;13.60;;;10.90;28.90;;;;;;5032695;28;20691;-48
2023/04/07 08:08:37;;;;;;;15.27;14.37;;;10.90;28.70;;;;;;5031695;28;20180;-50
2023/04/07 08:11:03;;;;;;;14.97;14.03;;;11.00;28.60;;;;;;5031664;28;20242;-50
2023/04/07 08:13:29;;;;;;;14.77;13.87;;;11.00;28.80;;;;;;5031977;28;20460;-45
2023/04/07 08:15:54;;;;;;;14.80;13.70;;;11.20;28.40;;;;;;5016173;28;20188;-43
2023/04/07 08:18:20;;;;;;;15.07;14.17;;;11.00;27.40;;;;;;5031575;28;20265;-47
2023/04/07 08:20:46;;;;;;;19.17;17.67;;;11.00;28.40;;;;;;5032346;28;20267;-46
2023/04/07 08:23:12;;;;;;;15.03;14.13;;;11.00;28.20;;;;;;5039864;28;20176;-45
2023/04/07 08:25:40;;;;;;;15.60;14.60;;;11.20;28.60;;;;;;5032700;28;20254;-44
2023/04/07 08:28:06;;;;;;;15.30;14.50;;;11.10;28.80;;;;;;5032182;28;20180;-46
2023/04/07 08:30:32;;;;;;;14.67;13.87;;;11.10;28.30;;;;;;5032122;28;20801;-48
2023/04/07 08:32:57;;;;;;;15.07;14.13;;;11.10;27.90;;;;;;5031417;28;20184;-48
2023/04/07 08:35:23;;;;;;;15.73;14.43;;;11.10;27.80;;;;;;5032098;28;20662;-47
2023/04/07 08:37:49;;;;;;;15.13;14.17;;;10.90;28.20;;;;;;5032039;28;20188;-46
2023/04/07 08:40:15;;;;;;;14.67;13.77;;;10.90;28.40;;;;;;5031944;28;20180;-46
2023/04/07 08:42:45;;;;;;;15.30;14.10;;;10.90;29.20;;;;;;5031233;28;20889;-48
2023/04/07 08:45:12;;;;;;;16.10;15.10;;;11.00;28.40;;;;;;5031825;28;20407;-48
2023/04/07 08:47:40;;;;;;;15.33;14.43;;;11.20;27.70;;;;;;5031716;28;20443;-46
2023/04/07 08:50:08;;;;;;;14.27;13.43;;;11.20;27.80;;;;;;5028633;28;20473;-47
2023/04/07 08:52:55;;;;;;;14.13;13.37;;;11.20;28.10;;;;;;5036638;28;20424;-46
2023/04/07 08:55:21;;;;;;;15.10;14.00;;;11.10;28.10;;;;;;5048206;28;20415;-44
2023/04/07 08:57:47;;;;;;;15.33;14.53;;;11.20;28.10;;;;;;5048189;28;20895;-45
2023/04/07 09:00:14;;;;;;;15.63;14.73;;;11.20;28.10;;;;;;5047727;28;20777;-47
2023/04/07 09:02:48;;;;;;;16.10;14.90;;;11.30;28.30;;;;;;5047660;28;20413;-45
2023/04/07 09:05:14;;;;;;;14.50;13.67;;;11.50;28.00;;;;;;5048163;28;20829;-48
2023/04/07 09:07:41;;;;;;;14.10;13.20;;;11.40;28.20;;;;;;5048160;28;20809;-48
2023/04/07 09:10:07;;;;;;;16.23;15.07;;;11.40;28.10;;;;;;5047940;28;20891;-50
2023/04/07 09:12:33;;;;;;;15.10;14.10;;;11.40;28.00;;;;;;5047505;28;20425;-47
2023/04/07 09:14:59;;;;;;;15.13;14.20;;;11.60;27.90;;;;;;5047820;28;20553;-45
2023/04/07 09:17:26;;;;;;;15.57;14.60;;;11.70;28.00;;;;;;5047931;28;20912;-53
2023/04/07 09:19:56;;;;;;;14.40;13.50;;;11.90;27.20;;;;;;5040171;28;20499;-53
2023/04/07 09:22:44;;;;;;;14.30;13.40;;;12.00;27.70;;;;;;5031949;28;20420;-45
2023/04/07 09:25:11;;;;;;;16.77;15.33;;;12.10;26.90;;;;;;5011360;28;20424;-51
2023/04/07 09:27:37;;;;;;;13.80;13.00;;;12.10;26.70;;;;;;5028912;28;20427;-49
2023/04/07 09:30:11;;;;;;;13.93;13.10;;;12.20;26.80;;;;;;5030565;28;20474;-50
2023/04/07 09:32:37;;;;;;;12.40;11.60;;;12.30;26.20;;;;;;5028249;28;20172;-46
2023/04/07 09:35:03;;;;;;;13.43;12.63;;;12.60;26.10;;;;;;5030927;28;20469;-49
2023/04/07 09:37:29;;;;;;;12.90;12.20;;;12.70;25.20;;;;;;5030662;28;20185;-52
2023/04/07 09:39:54;;;;;;;13.70;12.70;;;13.00;25.20;;;;;;5030903;28;20604;-50
2023/04/07 09:42:21;;;;;;;13.40;12.53;;;13.20;24.60;;;;;;5030406;28;20481;-47
2023/04/07 09:44:46;;;;;;;12.80;12.10;;;13.30;24.10;;;;;;5030905;28;20213;-49
2023/04/07 09:47:12;;;;;;;14.07;13.27;;;13.40;24.30;;;;;;5030868;28;20423;-48
2023/04/07 09:49:52;;;;;;;13.20;12.40;;;13.30;24.30;;;;;;5031108;28;20640;-47
2023/04/07 09:52:19;;;;;;;13.43;12.63;;;13.20;24.30;;;;;;5029659;28;20291;-47
2023/04/07 09:54:46;;;;;;;15.23;14.20;;;13.20;24.50;;;;;;5030913;28;20440;-45
2023/04/07 09:57:17;;;;;;;15.20;14.27;;;13.10;24.80;;;;;;5026210;28;20427;-46
2023/04/07 09:59:43;;;;;;;13.63;12.60;;;13.00;25.20;;;;;;5025372;28;20487;-50
2023/04/07 10:02:10;;;;;;;13.47;12.67;;;13.00;24.70;;;;;;5027456;28;20415;-45
2023/04/07 10:04:36;;;;;;;13.63;12.70;;;12.90;25.20;;;;;;5047759;28;20420;-59
2023/04/07 10:07:03;;;;;;;13.40;12.63;;;12.80;25.10;;;;;;5032382;28;21049;-52
2023/04/07 10:09:29;;;;;;;12.57;11.87;;;12.90;25.20;;;;;;5047339;28;20246;-52
2023/04/07 10:11:57;;;;;;;12.70;12.00;;;12.90;25.20;;;;;;5045307;28;20427;-52
2023/04/07 10:14:26;;;;;;;12.57;11.67;;;12.80;25.10;;;;;;5029510;28;20427;-51
2023/04/07 10:16:53;;;;;;;14.63;13.60;;;12.70;25.00;;;;;;5030302;28;20481;-54
2023/04/07 10:19:19;;;;;;;14.37;13.47;;;12.70;25.00;;;;;;5030387;28;20464;-52
2023/04/07 10:21:49;;;;;;;14.53;13.63;;;12.60;25.50;;;;;;5029259;28;20837;-50
2023/04/07 10:24:36;;;;;;;13.57;12.47;;;12.70;25.80;;;;;;5029393;28;20770;-52
2023/04/07 10:27:13;;;;;;;14.00;13.03;;;12.70;25.00;;;;;;5027576;28;20454;-50
2023/04/07 10:29:41;;;;;;;14.50;13.53;;;12.60;25.20;;;;;;5027287;28;20754;-52
2023/04/07 10:32:07;;;;;;;12.80;12.00;;;12.70;25.70;;;;;;5026275;28;20424;-55
2023/04/07 10:34:57;;;;;;;13.73;12.90;;;12.80;25.50;;;;;;5031025;28;20510;-55
2023/04/07 10:37:24;;;;;;;13.13;12.23;;;12.80;25.10;;;;;;5017542;28;20949;-53
2023/04/07 10:39:51;;;;;;;12.60;11.80;;;12.80;25.60;;;;;;5033993;28;21010;-49
2023/04/07 10:42:43;;;;;;;12.67;11.93;;;12.90;25.50;;;;;;5033245;28;20465;-50
2023/04/07 10:45:09;;;;;;;13.17;12.27;;;13.00;25.20;;;;;;5024895;28;20434;-50
2023/04/07 10:47:59;;;;;;;11.93;11.23;;;13.10;25.30;;;;;;5028036;28;20474;-49
2023/04/07 10:50:25;;;;;;;12.97;12.10;;;13.10;25.30;;;;;;5030759;28;20422;-46
2023/04/07 10:53:09;;;;;;;13.77;12.00;;;13.10;24.40;;;;;;5036765;28;20431;-51
2023/04/07 10:55:38;;;;;;;12.87;12.07;;;12.90;24.80;;;;;;5044040;28;20529;-48
2023/04/07 10:58:29;;;;;;;15.30;14.10;;;12.90;25.20;;;;;;5025510;28;20424;-52
2023/04/07 11:01:11;;;;;;;14.23;12.97;;;12.90;25.20;;;;;;5034115;28;20431;-56
2023/04/07 11:03:38;;;;;;;12.70;11.60;;;12.90;24.50;;;;;;5025474;28;20465;-52
2023/04/07 11:06:07;;;;;;;12.27;11.47;;;12.80;24.60;;;;;;5025187;28;20442;-54
2023/04/07 11:08:45;;;;;;;13.47;12.57;;;12.70;25.00;;;;;;5033856;28;20896;-56
2023/04/07 11:11:13;;;;;;;12.10;11.20;;;12.70;25.00;;;;;;5033075;28;20423;-47
2023/04/07 11:13:47;;;;;;;12.30;11.43;;;12.70;25.00;;;;;;5033834;28;20431;-47
2023/04/07 11:16:15;;;;;;;11.60;11.00;;;12.70;25.20;;;;;;5046282;28;20422;-45
2023/04/07 11:18:42;;;;;;;12.03;11.23;;;12.80;25.10;;;;;;5033492;28;20580;-50
2023/04/07 11:21:08;;;;;;;13.10;11.87;;;12.80;25.70;;;;;;5033287;28;20502;-52
2023/04/07 11:23:41;;;;;;;12.83;11.97;;;12.90;26.70;;;;;;5026520;28;20426;-46
2023/04/07 11:26:10;;;;;;;11.20;10.30;;;13.00;27.00;;;;;;5033244;28;20447;-51
2023/04/07 11:28:45;;;;;;;11.80;10.90;;;12.90;26.40;;;;;;5033421;28;20426;-49
2023/04/07 11:31:11;;;;;;;12.83;11.83;;;13.00;27.30;;;;;;5030555;28;20423;-48
2023/04/07 11:33:39;;;;;;;10.67;9.97;;;12.90;27.80;;;;;;5041732;28;20911;-48
2023/04/07 11:36:06;;;;;;;9.63;9.10;;;12.80;27.40;;;;;;5031977;28;20431;-47
2023/04/07 11:38:38;;;;;;;10.60;9.90;;;12.70;26.40;;;;;;5032861;28;20459;-48
2023/04/07 11:41:14;;;;;;;9.97;9.30;;;12.70;28.40;;;;;;5027640;28;20442;-49
2023/04/07 11:43:41;;;;;;;11.00;10.23;;;12.80;29.60;;;;;;5033140;28;20922;-49
2023/04/07 11:46:11;;;;;;;12.13;11.00;;;12.80;27.30;;;;;;5032289;28;20829;-48
2023/04/07 11:48:39;;;;;;;10.97;10.43;;;12.80;27.60;;;;;;5032978;28;20447;-52
2023/04/07 11:51:06;;;;;;;12.23;11.53;;;12.80;27.50;;;;;;5029403;28;20524;-51
2023/04/07 11:53:34;;;;;;;13.27;12.37;;;12.80;27.00;;;;;;5042685;28;20463;-46
2023/04/07 11:56:06;;;;;;;13.07;12.27;;;12.80;28.50;;;;;;5028703;28;20427;-48
2023/04/07 11:58:32;;;;;;;13.93;13.13;;;12.80;29.50;;;;;;5029427;28;20464;-50
2023/04/07 12:01:03;;;;;;;13.53;12.53;;;12.80;30.60;;;;;;5028724;28;20789;-50
2023/04/07 12:03:29;;;;;;;12.90;12.10;;;12.80;32.00;;;;;;5028767;28;20209;-46
2023/04/07 12:05:55;;;;;;;14.57;13.50;;;12.60;33.20;;;;;;5031732;28;20904;-52
2023/04/07 12:08:21;;;;;;;13.70;12.70;;;12.50;33.90;;;;;;5029034;28;20185;-50
2023/04/07 12:10:47;;;;;;;13.83;13.03;;;12.30;34.40;;;;;;5029360;28;20183;-45
2023/04/07 12:13:13;;;;;;;14.17;13.20;;;12.20;34.80;;;;;;5029819;28;20436;-49
2023/04/07 12:15:39;;;;;;;14.57;13.50;;;12.10;36.00;;;;;;5022405;28;20183;-54
2023/04/07 12:18:05;;;;;;;14.00;13.20;;;12.00;36.40;;;;;;5046483;28;20449;-54
2023/04/07 12:20:31;;;;;;;14.57;13.67;;;11.90;37.40;;;;;;5024875;28;20192;-55
2023/04/07 12:22:58;;;;;;;13.53;12.53;;;11.90;37.70;;;;;;5023700;28;20437;-55
2023/04/07 12:25:27;;;;;;;14.03;13.10;;;11.90;38.10;;;;;;5037769;28;20173;-55
2023/04/07 12:27:53;;;;;;;15.57;14.70;;;11.90;38.10;;;;;;5022073;28;20430;-55
2023/04/07 12:30:19;;;;;;;14.30;13.53;;;11.80;39.60;;;;;;5021617;28;20416;-52
2023/04/07 12:32:44;;;;;;;14.53;13.73;;;11.60;39.90;;;;;;5036358;28;20183;-56